createdAt,value
2022-08-16T00:39:27.233Z,18.13
2022-08-16T00:42:29.993Z,15.10
2022-08-16T00:45:58.481Z,15.27
2022-08-16T00:48:52.260Z,16.33
2022-08-16T00:51:46.311Z,15.27
2022-08-16T00:54:50.896Z,14.47
2022-08-16T00:57:58.539Z,14.67
2022-08-16T01:00:54.057Z,15.27
2022-08-16T01:04:29.372Z,16.35
2022-08-16T01:07:18.709Z,17.00
2022-08-16T01:10:16.109Z,16.17
2022-08-16T01:13:15.266Z,16.35
2022-08-16T01:16:19.858Z,18.23
2022-08-16T01:19:36.057Z,17.10
2022-08-16T01:22:52.228Z,17.43
2022-08-16T01:28:55.444Z,15.93
2022-08-16T01:31:43.460Z,18.00
2022-08-16T01:34:31.699Z,16.67
2022-08-16T01:37:53.104Z,17.60
2022-08-16T01:40:44.546Z,18.23
2022-08-16T01:43:40.631Z,17.93
2022-08-16T01:51:07.971Z,18.93
2022-08-16T01:52:55.227Z,20.23
2022-08-16T01:55:54.175Z,18.00
2022-08-16T02:02:22.180Z,20.17
2022-08-16T02:05:23.620Z,18.20
2022-08-16T02:08:33.739Z,19.87
2022-08-16T02:11:24.935Z,22.33
2022-08-16T02:14:38.276Z,22.47
2022-08-16T02:17:28.416Z,22.63
2022-08-16T02:20:35.657Z,23.30
2022-08-16T02:26:19.003Z,23.80
2022-08-16T02:29:07.216Z,22.40
2022-08-16T02:32:51.314Z,22.00
2022-08-16T02:35:53.724Z,23.20
2022-08-16T02:38:49.284Z,23.53
2022-08-16T02:41:41.495Z,23.60
2022-08-16T02:44:42.369Z,24.33
2022-08-16T02:47:29.996Z,23.53
2022-08-16T02:50:54.663Z,21.97
2022-08-16T02:53:49.604Z,23.20
2022-08-16T02:56:48.028Z,23.90
2022-08-16T03:02:56.084Z,20.93
2022-08-16T03:05:59.684Z,25.57
2022-08-16T03:08:56.435Z,23.30
2022-08-16T03:11:49.626Z,25.37
2022-08-16T03:14:41.014Z,25.60
2022-08-16T03:17:33.274Z,25.40
2022-08-16T03:20:32.434Z,24.13
2022-08-16T03:23:35.523Z,26.30
2022-08-16T03:26:31.921Z,22.63
2022-08-16T03:29:32.774Z,25.60
2022-08-16T03:32:23.257Z,27.10
2022-08-16T03:35:14.156Z,28.63
2022-08-16T03:38:32.973Z,29.00
2022-08-16T03:41:29.323Z,27.13
2022-08-16T03:44:43.879Z,29.00
2022-08-16T03:47:42.609Z,28.13
2022-08-16T03:50:38.018Z,29.33
2022-08-16T03:53:37.994Z,28.87
2022-08-16T04:02:48.648Z,28.50
2022-08-16T04:08:53.422Z,31.73
2022-08-16T04:11:42.962Z,31.30
2022-08-16T04:14:38.395Z,32.70
2022-08-16T04:17:42.518Z,32.37
2022-08-16T04:20:33.867Z,32.07
2022-08-16T04:23:34.901Z,34.23
2022-08-16T04:26:30.949Z,32.72
2022-08-16T04:29:27.243Z,33.03
2022-08-16T04:32:35.610Z,33.33
2022-08-16T04:35:24.322Z,32.50
2022-08-16T04:38:20.946Z,34.00
2022-08-16T04:41:09.218Z,32.27
2022-08-16T04:44:00.432Z,33.53
2022-08-16T04:47:00.874Z,30.37
2022-08-16T04:49:53.977Z,34.07
2022-08-16T04:52:46.959Z,32.43
2022-08-16T04:55:43.334Z,30.10
2022-08-16T04:58:41.367Z,26.53
2022-08-16T05:01:58.991Z,30.00
2022-08-16T05:04:52.046Z,28.57
2022-08-16T05:07:57.713Z,29.47
2022-08-16T05:14:06.722Z,32.23
2022-08-16T05:16:59.589Z,32.47
2022-08-16T05:19:57.385Z,31.83
2022-08-16T05:22:53.503Z,31.97
2022-08-16T05:32:32.363Z,26.70
2022-08-16T05:35:30.469Z,32.63
2022-08-16T05:38:32.744Z,31.40
2022-08-16T05:41:28.643Z,29.33
2022-08-16T05:44:24.850Z,33.07
2022-08-16T05:47:15.231Z,29.73
2022-08-16T05:50:19.809Z,30.17
2022-08-16T05:53:24.191Z,32.80
2022-08-16T05:56:19.244Z,30.77
2022-08-16T05:59:09.765Z,31.43
2022-08-16T06:02:15.437Z,33.13
2022-08-16T06:05:07.863Z,31.73
2022-08-16T06:08:05.204Z,33.87
2022-08-16T06:11:11.111Z,32.25
2022-08-16T06:14:05.392Z,35.00
2022-08-16T06:16:55.954Z,32.20
2022-08-16T06:19:53.146Z,32.70
2022-08-16T06:22:44.672Z,33.33
2022-08-16T06:25:39.632Z,34.47
2022-08-16T06:28:35.937Z,34.90
2022-08-16T06:31:26.909Z,34.77
2022-08-16T06:34:54.850Z,31.97
2022-08-16T06:37:26.078Z,34.77
2022-08-16T06:40:37.776Z,34.57
2022-08-16T06:43:27.336Z,33.43
2022-08-16T06:46:37.826Z,35.50
2022-08-16T06:49:30.209Z,34.37
2022-08-16T06:52:58.322Z,32.10
2022-08-16T06:55:38.386Z,36.33
2022-08-16T06:58:40.096Z,34.67
2022-08-16T07:01:46.239Z,34.90
2022-08-16T07:04:39.150Z,34.30
2022-08-16T07:07:33.860Z,32.97
2022-08-16T07:10:26.730Z,34.87
2022-08-16T07:13:19.801Z,32.37
2022-08-16T07:16:27.814Z,32.67
2022-08-16T07:20:02.548Z,33.00
2022-08-16T07:23:13.070Z,33.63
2022-08-16T07:29:05.895Z,32.67
2022-08-16T07:31:57.584Z,33.93
2022-08-16T07:35:00.453Z,33.00
2022-08-16T07:37:49.963Z,31.57
2022-08-16T07:41:09.620Z,30.33
2022-08-16T07:44:15.596Z,32.70
2022-08-16T07:47:17.679Z,30.20
2022-08-16T07:50:54.925Z,31.10
2022-08-16T07:53:25.463Z,30.70
2022-08-16T07:56:33.967Z,30.67
2022-08-16T07:59:26.263Z,30.58
2022-08-16T08:02:33.566Z,31.33
2022-08-16T08:05:36.929Z,28.27
2022-08-16T08:08:49.523Z,30.30
2022-08-16T08:11:37.830Z,28.45
2022-08-16T08:14:29.931Z,30.40
2022-08-16T08:17:18.812Z,27.13
2022-08-16T08:20:20.845Z,29.33
2022-08-16T08:23:24.702Z,28.23
2022-08-16T08:26:17.788Z,26.20
2022-08-16T08:32:58.727Z,25.30
2022-08-16T08:35:56.088Z,27.25
2022-08-16T08:38:47.801Z,30.92
2022-08-16T08:41:35.357Z,29.00
2022-08-16T08:47:31.390Z,30.08
2022-08-16T08:50:31.592Z,31.45
2022-08-16T08:53:30.558Z,27.83
2022-08-16T08:56:23.397Z,30.27
2022-08-16T08:59:20.582Z,31.58
2022-08-16T09:02:20.470Z,28.60
2022-08-16T09:05:17.711Z,29.55
2022-08-16T09:08:08.996Z,27.60
2022-08-16T09:11:08.906Z,26.02
2022-08-16T09:17:11.395Z,24.25
2022-08-16T09:20:23.406Z,26.55
2022-08-16T09:23:24.812Z,28.23
2022-08-16T09:26:45.362Z,24.95
2022-08-16T09:29:44.353Z,26.25
2022-08-16T09:32:36.940Z,23.98
2022-08-16T09:35:26.970Z,23.98
2022-08-16T09:38:32.443Z,25.50
2022-08-16T09:41:23.157Z,23.92
2022-08-16T09:45:09.424Z,24.45
2022-08-16T09:47:28.908Z,22.15
2022-08-16T09:50:39.768Z,20.17
2022-08-16T09:53:32.544Z,25.85
2022-08-16T09:56:34.906Z,24.30
2022-08-16T09:59:38.863Z,22.35
2022-08-16T10:05:53.390Z,22.65
2022-08-16T10:09:05.884Z,23.70
2022-08-16T10:12:19.794Z,22.23
2022-08-16T10:15:09.025Z,19.00
2022-08-16T10:18:56.423Z,20.27
2022-08-16T10:21:36.201Z,18.95
2022-08-16T10:24:35.742Z,14.88
2022-08-16T10:27:47.254Z,15.98
2022-08-16T10:30:45.378Z,13.75
2022-08-16T10:33:40.507Z,12.10
2022-08-16T10:36:39.388Z,11.68
2022-08-16T10:42:57.124Z,20.52
2022-08-16T10:46:01.225Z,21.67
2022-08-16T10:48:50.417Z,19.52
2022-08-16T10:52:01.059Z,18.10
2022-08-16T10:54:58.816Z,17.50
2022-08-16T10:57:53.199Z,14.82
2022-08-16T11:00:41.110Z,13.93
2022-08-16T11:03:42.833Z,14.88
2022-08-16T11:06:34.797Z,14.07
2022-08-16T11:09:28.733Z,16.58
2022-08-16T11:12:33.794Z,16.55
2022-08-16T11:15:54.577Z,11.60
2022-08-16T11:19:03.589Z,15.98
2022-08-16T11:22:39.707Z,11.82
2022-08-16T11:32:02.612Z,12.13
2022-08-16T11:35:13.300Z,15.40
2022-08-16T11:38:46.201Z,14.07
2022-08-16T11:41:15.478Z,16.48
2022-08-16T11:44:13.672Z,15.80
2022-08-16T11:47:10.192Z,14.98
2022-08-16T11:50:00.450Z,15.75
2022-08-16T11:52:48.918Z,14.95
2022-08-16T11:55:40.964Z,11.68
2022-08-16T11:58:34.436Z,13.50
2022-08-16T12:01:44.340Z,13.02
2022-08-16T12:04:46.251Z,10.88
2022-08-16T12:07:45.868Z,10.93
2022-08-16T12:17:05.398Z,9.40
2022-08-16T12:20:04.776Z,9.18
2022-08-16T12:22:56.804Z,9.95
2022-08-16T12:25:47.876Z,12.57
2022-08-16T12:28:56.199Z,10.88
2022-08-16T12:32:01.169Z,12.25
2022-08-16T12:34:54.060Z,9.68
2022-08-16T12:37:56.660Z,12.20
2022-08-16T12:40:53.051Z,12.65
2022-08-16T12:44:01.400Z,12.57
2022-08-16T12:47:09.197Z,10.70
2022-08-16T12:50:03.727Z,11.60
2022-08-16T12:52:56.938Z,12.10
2022-08-16T12:58:52.086Z,11.15
2022-08-16T13:01:45.836Z,11.45
2022-08-16T13:04:44.348Z,12.90
2022-08-16T13:07:42.438Z,13.32
2022-08-16T13:10:37.759Z,12.18
2022-08-16T13:13:33.414Z,9.85
2022-08-16T13:19:56.034Z,10.07
2022-08-16T13:22:48.555Z,9.80
2022-08-16T13:25:40.355Z,10.80
2022-08-16T13:29:07.756Z,10.35
2022-08-16T13:32:01.155Z,10.60
2022-08-16T13:35:06.988Z,11.07
2022-08-16T13:38:01.369Z,10.52
2022-08-16T13:40:57.582Z,9.32
2022-08-16T13:43:57.534Z,9.02
2022-08-16T13:46:54.323Z,8.20
2022-08-16T13:49:57.752Z,8.13
2022-08-16T13:52:48.853Z,8.88
2022-08-16T13:55:40.948Z,7.95
2022-08-16T13:58:55.168Z,8.30
2022-08-16T14:01:45.245Z,8.25
2022-08-16T14:04:37.899Z,7.70
2022-08-16T14:07:32.173Z,9.02
2022-08-16T14:10:25.131Z,8.35
2022-08-16T14:13:26.515Z,8.75
2022-08-16T14:16:23.840Z,11.82
2022-08-16T14:19:22.520Z,13.50
2022-08-16T14:22:34.940Z,10.65
2022-08-16T14:25:29.017Z,11.95
2022-08-16T14:28:19.782Z,10.85
2022-08-16T14:31:23.632Z,10.85
2022-08-16T14:34:13.877Z,13.85
2022-08-16T14:37:11.284Z,13.07
2022-08-16T14:39:59.206Z,13.38
2022-08-16T14:42:55.660Z,12.38
2022-08-16T14:45:43.396Z,13.43
2022-08-16T14:48:35.646Z,12.18
2022-08-16T14:51:23.702Z,12.70
2022-08-16T14:54:30.491Z,11.95
2022-08-16T14:57:21.911Z,13.95
2022-08-16T15:00:18.667Z,11.90
2022-08-16T15:03:22.788Z,16.25
2022-08-16T15:06:50.328Z,14.52
2022-08-16T15:09:44.598Z,13.32
2022-08-16T15:12:58.894Z,11.70
2022-08-16T15:16:03.823Z,11.00
2022-08-16T15:18:53.792Z,9.27
2022-08-16T15:22:05.451Z,9.43
2022-08-16T15:24:58.965Z,9.65
2022-08-16T15:27:55.448Z,9.18
2022-08-16T15:31:03.312Z,10.00
2022-08-16T15:34:02.908Z,9.98
2022-08-16T15:36:51.374Z,9.52
2022-08-16T15:39:53.870Z,9.15
2022-08-16T15:46:54.617Z,9.23
2022-08-16T15:49:37.297Z,9.98
2022-08-16T15:52:47.369Z,10.30
2022-08-16T15:55:35.729Z,9.43
2022-08-16T15:58:35.503Z,8.88
2022-08-16T16:02:39.151Z,8.48
2022-08-16T16:05:46.981Z,9.25
2022-08-16T16:12:50.124Z,8.40
2022-08-16T16:15:34.884Z,7.88
2022-08-16T16:18:26.509Z,8.40
2022-08-16T16:22:04.795Z,6.32
2022-08-16T16:24:51.735Z,5.95
2022-08-16T16:27:40.674Z,5.45
2022-08-16T16:30:45.092Z,5.80
2022-08-16T16:34:00.490Z,5.70
2022-08-16T16:36:50.359Z,6.00
2022-08-16T16:39:49.002Z,6.03
2022-08-16T16:43:02.530Z,5.57
2022-08-16T16:45:50.625Z,5.18
2022-08-16T16:48:45.898Z,5.88
2022-08-16T16:51:41.223Z,5.20
2022-08-16T16:54:32.514Z,5.18
2022-08-16T17:00:42.943Z,5.00
2022-08-16T17:03:40.617Z,5.40
2022-08-16T17:06:35.359Z,5.57
2022-08-16T17:09:32.876Z,5.10
2022-08-16T17:12:47.456Z,5.68
2022-08-16T17:15:39.885Z,5.35
2022-08-16T17:19:14.903Z,5.65
2022-08-16T17:21:39.427Z,5.30
2022-08-16T17:24:33.251Z,5.82
2022-08-16T17:27:33.816Z,5.78
2022-08-16T17:30:45.086Z,5.22
2022-08-16T17:33:54.365Z,5.65
2022-08-16T17:36:52.832Z,5.35
2022-08-16T17:40:00.097Z,6.03
2022-08-16T17:42:57.166Z,6.03
2022-08-16T17:45:48.921Z,5.65
2022-08-16T17:48:44.317Z,5.28
2022-08-16T17:51:35.148Z,6.72
2022-08-16T17:54:30.725Z,5.85
2022-08-16T17:57:23.977Z,5.25
2022-08-16T18:00:21.996Z,4.78
2022-08-16T18:06:35.959Z,5.17
2022-08-16T18:09:30.252Z,4.45
2022-08-16T18:12:54.208Z,4.47
2022-08-16T18:15:36.563Z,5.18
2022-08-16T18:18:27.922Z,4.65
2022-08-16T18:21:41.078Z,5.63
2022-08-16T18:24:29.832Z,5.00
2022-08-16T18:27:26.414Z,5.20
2022-08-16T18:30:22.059Z,4.95
2022-08-16T18:33:12.872Z,4.93
2022-08-16T18:36:01.504Z,5.10
2022-08-16T18:38:52.924Z,4.25
2022-08-16T18:41:49.499Z,5.38
2022-08-16T18:44:41.932Z,5.60
2022-08-16T18:47:32.936Z,5.78
2022-08-16T18:50:23.195Z,5.72
2022-08-16T18:53:13.821Z,6.97
2022-08-16T18:56:04.907Z,7.03
2022-08-16T18:59:01.146Z,6.75
2022-08-16T19:02:00.323Z,5.93
2022-08-16T19:05:12.496Z,6.75
2022-08-16T19:08:03.806Z,7.38
2022-08-16T19:10:53.751Z,7.63
2022-08-16T19:13:55.125Z,6.72
2022-08-16T19:16:47.409Z,7.10
2022-08-16T19:19:41.457Z,6.03
2022-08-16T19:22:59.603Z,6.87
2022-08-16T19:25:48.399Z,6.03
2022-08-16T19:28:58.354Z,6.32
2022-08-16T19:31:52.460Z,7.47
2022-08-16T19:34:42.908Z,5.97
2022-08-16T19:37:33.078Z,6.40
2022-08-16T19:40:37.444Z,6.15
2022-08-16T19:43:32.893Z,5.97
2022-08-16T19:46:33.643Z,8.15
2022-08-16T19:49:22.739Z,9.05
2022-08-16T19:52:38.529Z,9.70
2022-08-16T19:55:32.690Z,9.63
2022-08-16T19:58:26.152Z,12.20
2022-08-16T20:01:21.908Z,12.75
2022-08-16T20:04:12.889Z,12.93
2022-08-16T20:07:04.633Z,15.63
2022-08-16T20:13:02.200Z,19.00
2022-08-16T20:15:57.518Z,19.02
2022-08-16T20:18:46.667Z,20.73
2022-08-16T20:22:09.060Z,22.40
2022-08-16T20:25:11.308Z,20.50
2022-08-16T20:28:05.989Z,22.85
2022-08-16T20:30:54.418Z,23.48
2022-08-16T20:33:57.016Z,20.50
2022-08-16T20:40:28.674Z,20.50
2022-08-16T20:43:14.386Z,20.45
2022-08-16T20:46:01.866Z,21.00
2022-08-16T20:48:49.751Z,22.52
2022-08-16T20:51:49.558Z,22.40
2022-08-16T20:54:40.470Z,22.02
2022-08-16T20:57:27.617Z,21.83
2022-08-16T21:00:15.604Z,23.80
2022-08-16T21:03:13.883Z,21.98
2022-08-16T21:06:02.300Z,23.00
2022-08-16T21:08:52.287Z,22.25
2022-08-16T21:11:41.128Z,21.15
2022-08-16T21:14:29.382Z,22.63
2022-08-16T21:17:17.149Z,22.55
2022-08-16T21:20:04.782Z,23.52
2022-08-16T21:23:03.439Z,20.85
2022-08-16T21:25:58.312Z,19.77
2022-08-16T21:28:47.192Z,29.02
2022-08-16T21:31:34.739Z,21.58
2022-08-16T21:34:21.922Z,28.80
2022-08-16T21:37:09.274Z,22.55
2022-08-16T21:39:56.898Z,22.42
2022-08-16T21:42:45.148Z,23.83
2022-08-16T21:45:32.903Z,22.75
2022-08-16T21:48:33.528Z,24.58
2022-08-16T21:51:22.846Z,22.58
2022-08-16T21:54:10.444Z,20.60
2022-08-16T21:56:57.620Z,22.35
2022-08-16T21:59:44.769Z,22.95
2022-08-16T22:06:12.357Z,23.55
2022-08-16T22:12:10.231Z,23.30
2022-08-16T22:15:01.695Z,22.38
2022-08-16T22:18:29.270Z,20.50
2022-08-16T22:22:42.324Z,20.55
2022-08-16T22:25:30.224Z,23.27
2022-08-16T22:28:25.307Z,24.40
2022-08-16T22:31:16.241Z,23.95
2022-08-16T22:34:05.571Z,24.92
2022-08-16T22:36:56.851Z,22.40
2022-08-16T22:39:53.468Z,24.10
2022-08-16T22:43:03.082Z,25.35
2022-08-16T22:45:51.739Z,27.80
2022-08-16T22:48:42.645Z,27.38
2022-08-16T22:51:33.831Z,26.52
2022-08-16T22:54:47.429Z,23.85
2022-08-16T22:57:44.968Z,23.40
2022-08-16T23:00:43.173Z,23.70
2022-08-16T23:03:33.563Z,25.88
2022-08-16T23:06:22.504Z,28.20
2022-08-16T23:09:26.618Z,27.13
2022-08-16T23:12:29.165Z,27.20
2022-08-16T23:15:27.760Z,25.45
2022-08-16T23:18:27.032Z,25.60
2022-08-16T23:21:34.135Z,24.33
2022-08-16T23:24:56.284Z,25.08
2022-08-16T23:27:54.258Z,24.08
2022-08-16T23:30:56.292Z,23.85
2022-08-16T23:33:55.732Z,25.20
2022-08-16T23:36:49.984Z,24.17
2022-08-16T23:39:49.318Z,24.33
2022-08-16T23:43:01.844Z,24.10
2022-08-16T23:45:55.488Z,23.95
2022-08-16T23:49:44.978Z,21.63
2022-08-16T23:52:04.063Z,21.92
2022-08-16T23:55:04.734Z,20.35
2022-08-16T23:58:08.086Z,20.80
